sensor_id;sensor_type;location;lat;lon;timestamp;pressure;altitude;pressure_sealevel;temperature;humidity
77889;BME280;67082;41.704;44.768;2023-02-28T00:01:32;96434.72;;;9.17;39.75
77889;BME280;67082;41.704;44.768;2023-02-28T00:04:01;96439.75;;;9.22;39.46
77889;BME280;67082;41.704;44.768;2023-02-28T00:06:29;96448.03;;;9.22;39.66
77889;BME280;67082;41.704;44.768;2023-02-28T00:08:57;96437.81;;;9.19;39.60
77889;BME280;67082;41.704;44.768;2023-02-28T00:11:26;96432.53;;;9.28;39.76
77889;BME280;67082;41.704;44.768;2023-02-28T00:13:55;96433.00;;;9.23;39.04
77889;BME280;67082;41.704;44.768;2023-02-28T00:16:23;96428.63;;;9.25;39.51
77889;BME280;67082;41.704;44.768;2023-02-28T00:18:52;96428.88;;;9.31;39.56
77889;BME280;67082;41.704;44.768;2023-02-28T00:21:20;96414.16;;;9.18;38.47
77889;BME280;67082;41.704;44.768;2023-02-28T00:23:49;96436.59;;;9.20;39.04
77889;BME280;67082;41.704;44.768;2023-02-28T00:26:17;96423.50;;;9.24;38.76
77889;BME280;67082;41.704;44.768;2023-02-28T00:28:51;96432.66;;;9.21;38.85
77889;BME280;67082;41.704;44.768;2023-02-28T00:31:22;96422.44;;;9.18;38.41
77889;BME280;67082;41.704;44.768;2023-02-28T00:33:50;96439.38;;;9.39;38.52
77889;BME280;67082;41.704;44.768;2023-02-28T00:36:20;96427.63;;;9.35;39.07
77889;BME280;67082;41.704;44.768;2023-02-28T00:38:51;96424.41;;;9.37;38.48
77889;BME280;67082;41.704;44.768;2023-02-28T00:41:19;96433.28;;;9.28;39.95
77889;BME280;67082;41.704;44.768;2023-02-28T00:43:48;96429.34;;;9.29;40.18
77889;BME280;67082;41.704;44.768;2023-02-28T00:46:16;96435.41;;;9.40;39.38
77889;BME280;67082;41.704;44.768;2023-02-28T00:48:45;96430.31;;;9.39;39.29
77889;BME280;67082;41.704;44.768;2023-02-28T00:51:14;96427.25;;;9.33;39.38
77889;BME280;67082;41.704;44.768;2023-02-28T00:53:42;96429.69;;;9.31;39.72
77889;BME280;67082;41.704;44.768;2023-02-28T00:56:10;96432.88;;;9.30;39.78
77889;BME280;67082;41.704;44.768;2023-02-28T00:58:39;96435.56;;;9.33;39.30
77889;BME280;67082;41.704;44.768;2023-02-28T01:01:07;96437.97;;;9.31;39.00
77889;BME280;67082;41.704;44.768;2023-02-28T01:03:41;96432.78;;;9.33;39.28
77889;BME280;67082;41.704;44.768;2023-02-28T01:06:10;96435.63;;;9.30;39.88
77889;BME280;67082;41.704;44.768;2023-02-28T01:08:39;96431.03;;;9.23;40.27
77889;BME280;67082;41.704;44.768;2023-02-28T01:11:09;96430.09;;;9.30;40.02
77889;BME280;67082;41.704;44.768;2023-02-28T01:13:41;96438.47;;;9.26;39.59
77889;BME280;67082;41.704;44.768;2023-02-28T01:16:12;96429.91;;;9.21;39.81
77889;BME280;67082;41.704;44.768;2023-02-28T01:18:40;96436.13;;;9.25;39.92
77889;BME280;67082;41.704;44.768;2023-02-28T01:21:12;96441.31;;;9.23;39.68
77889;BME280;67082;41.704;44.768;2023-02-28T01:23:42;96432.22;;;9.22;40.51
77889;BME280;67082;41.704;44.768;2023-02-28T01:26:22;96440.09;;;9.24;40.32
77889;BME280;67082;41.704;44.768;2023-02-28T01:28:52;96438.03;;;9.08;40.52
77889;BME280;67082;41.704;44.768;2023-02-28T01:31:21;96450.50;;;9.16;40.99
77889;BME280;67082;41.704;44.768;2023-02-28T01:33:50;96444.56;;;9.18;40.97
77889;BME280;67082;41.704;44.768;2023-02-28T01:36:21;96440.00;;;9.08;41.77
77889;BME280;67082;41.704;44.768;2023-02-28T01:38:50;96443.22;;;9.06;40.76
77889;BME280;67082;41.704;44.768;2023-02-28T01:41:26;96446.19;;;9.15;41.57
77889;BME280;67082;41.704;44.768;2023-02-28T01:44:00;96446.13;;;9.19;40.40
77889;BME280;67082;41.704;44.768;2023-02-28T01:46:32;96444.22;;;9.16;41.14
77889;BME280;67082;41.704;44.768;2023-02-28T01:49:06;96448.13;;;9.18;40.87
77889;BME280;67082;41.704;44.768;2023-02-28T01:54:12;96450.09;;;9.18;41.39
77889;BME280;67082;41.704;44.768;2023-02-28T01:57:09;96450.22;;;9.11;41.23
77889;BME280;67082;41.704;44.768;2023-02-28T01:59:48;96450.09;;;9.18;41.69
77889;BME280;67082;41.704;44.768;2023-02-28T02:02:19;96435.19;;;9.12;41.05
77889;BME280;67082;41.704;44.768;2023-02-28T02:04:59;96446.19;;;9.15;41.10
77889;BME280;67082;41.704;44.768;2023-02-28T02:07:37;96448.38;;;9.24;40.79
77889;BME280;67082;41.704;44.768;2023-02-28T02:10:16;96459.94;;;9.19;41.16
77889;BME280;67082;41.704;44.768;2023-02-28T02:21:54;96471.34;;;9.01;41.40
77889;BME280;67082;41.704;44.768;2023-02-28T02:36:24;96466.78;;;8.91;42.58
77889;BME280;67082;41.704;44.768;2023-02-28T02:41:53;96467.44;;;8.76;42.32
77889;BME280;67082;41.704;44.768;2023-02-28T02:44:26;96467.81;;;8.78;42.65
77889;BME280;67082;41.704;44.768;2023-02-28T02:47:10;96467.38;;;8.79;42.65
77889;BME280;67082;41.704;44.768;2023-02-28T02:49:44;96469.41;;;8.75;42.31
77889;BME280;67082;41.704;44.768;2023-02-28T02:52:15;96474.88;;;8.79;41.43
77889;BME280;67082;41.704;44.768;2023-02-28T02:54:48;96464.22;;;8.81;41.83
77889;BME280;67082;41.704;44.768;2023-02-28T02:57:41;96486.38;;;8.77;42.68
77889;BME280;67082;41.704;44.768;2023-02-28T03:00:16;96466.59;;;8.79;42.07
77889;BME280;67082;41.704;44.768;2023-02-28T03:02:47;96466.66;;;8.75;43.00
77889;BME280;67082;41.704;44.768;2023-02-28T03:05:47;96469.94;;;8.44;42.72
77889;BME280;67082;41.704;44.768;2023-02-28T03:08:17;96461.91;;;8.53;42.70
77889;BME280;67082;41.704;44.768;2023-02-28T03:10:48;96464.44;;;8.67;42.82
77889;BME280;67082;41.704;44.768;2023-02-28T03:21:28;96439.88;;;8.72;42.70
77889;BME280;67082;41.704;44.768;2023-02-28T03:24:10;96455.59;;;8.75;42.74
77889;BME280;67082;41.704;44.768;2023-02-28T03:26:43;96455.13;;;8.80;42.95
77889;BME280;67082;41.704;44.768;2023-02-28T03:29:35;96451.94;;;8.82;42.82
77889;BME280;67082;41.704;44.768;2023-02-28T03:34:55;96455.47;;;8.36;44.18
77889;BME280;67082;41.704;44.768;2023-02-28T03:37:25;96460.91;;;8.43;44.69
77889;BME280;67082;41.704;44.768;2023-02-28T03:40:15;96453.38;;;8.44;44.26
77889;BME280;67082;41.704;44.768;2023-02-28T03:42:48;96462.63;;;8.57;44.88
77889;BME280;67082;41.704;44.768;2023-02-28T03:45:21;96462.44;;;8.21;44.50
77889;BME280;67082;41.704;44.768;2023-02-28T03:56:01;96460.91;;;8.66;42.63
77889;BME280;67082;41.704;44.768;2023-02-28T03:58:47;96463.97;;;8.72;42.18
77889;BME280;67082;41.704;44.768;2023-02-28T04:01:19;96469.00;;;8.77;43.15
77889;BME280;67082;41.704;44.768;2023-02-28T04:03:49;96467.75;;;8.81;42.51
77889;BME280;67082;41.704;44.768;2023-02-28T04:06:20;96472.03;;;8.86;42.59
77889;BME280;67082;41.704;44.768;2023-02-28T04:08:49;96468.41;;;8.89;42.36
77889;BME280;67082;41.704;44.768;2023-02-28T04:11:23;96472.59;;;8.97;41.85
77889;BME280;67082;41.704;44.768;2023-02-28T04:13:51;96465.91;;;8.75;43.34
77889;BME280;67082;41.704;44.768;2023-02-28T04:16:19;96474.13;;;8.55;44.05
77889;BME280;67082;41.704;44.768;2023-02-28T04:19:06;96478.19;;;8.47;44.73
77889;BME280;67082;41.704;44.768;2023-02-28T04:21:37;96472.97;;;8.53;44.20
77889;BME280;67082;41.704;44.768;2023-02-28T04:24:09;96474.72;;;8.66;43.93
77889;BME280;67082;41.704;44.768;2023-02-28T04:26:45;96467.69;;;8.62;43.97
77889;BME280;67082;41.704;44.768;2023-02-28T04:29:19;96471.66;;;8.84;43.55
77889;BME280;67082;41.704;44.768;2023-02-28T04:31:47;96462.34;;;8.74;44.05
77889;BME280;67082;41.704;44.768;2023-02-28T04:34:16;96473.09;;;8.92;43.86
77889;BME280;67082;41.704;44.768;2023-02-28T04:36:45;96489.91;;;9.01;42.91
77889;BME280;67082;41.704;44.768;2023-02-28T04:39:40;96487.13;;;8.78;43.23
77889;BME280;67082;41.704;44.768;2023-02-28T04:42:09;96496.97;;;9.02;42.72
77889;BME280;67082;41.704;44.768;2023-02-28T04:44:38;96494.94;;;9.06;42.41
77889;BME280;67082;41.704;44.768;2023-02-28T04:47:06;96493.59;;;9.14;42.61
77889;BME280;67082;41.704;44.768;2023-02-28T04:49:35;96495.88;;;9.19;42.65
77889;BME280;67082;41.704;44.768;2023-02-28T04:52:03;96484.75;;;9.22;42.68
77889;BME280;67082;41.704;44.768;2023-02-28T04:54:31;96489.88;;;9.24;42.29
77889;BME280;67082;41.704;44.768;2023-02-28T04:56:59;96492.78;;;9.17;41.85
77889;BME280;67082;41.704;44.768;2023-02-28T04:59:29;96503.63;;;9.27;41.35
77889;BME280;67082;41.704;44.768;2023-02-28T05:01:57;96498.09;;;9.27;41.59
77889;BME280;67082;41.704;44.768;2023-02-28T05:04:26;96502.56;;;9.41;42.21
77889;BME280;67082;41.704;44.768;2023-02-28T05:06:54;96486.19;;;9.30;41.68
77889;BME280;67082;41.704;44.768;2023-02-28T05:09:23;96507.31;;;9.40;41.91
77889;BME280;67082;41.704;44.768;2023-02-28T05:11:51;96508.84;;;9.45;41.75
77889;BME280;67082;41.704;44.768;2023-02-28T05:14:21;96507.47;;;9.33;40.92
77889;BME280;67082;41.704;44.768;2023-02-28T05:16:50;96498.16;;;9.24;41.76
77889;BME280;67082;41.704;44.768;2023-02-28T05:19:18;96505.56;;;9.30;41.95
77889;BME280;67082;41.704;44.768;2023-02-28T05:21:53;96508.50;;;9.20;42.21
77889;BME280;67082;41.704;44.768;2023-02-28T05:24:25;96491.94;;;8.97;43.08
77889;BME280;67082;41.704;44.768;2023-02-28T05:26:54;96499.06;;;9.17;42.76
77889;BME280;67082;41.704;44.768;2023-02-28T05:29:23;96495.56;;;9.36;42.04
77889;BME280;67082;41.704;44.768;2023-02-28T05:31:51;96509.31;;;9.40;41.69
77889;BME280;67082;41.704;44.768;2023-02-28T05:34:20;96497.91;;;9.38;42.25
77889;BME280;67082;41.704;44.768;2023-02-28T05:36:48;96495.69;;;9.49;41.35
77889;BME280;67082;41.704;44.768;2023-02-28T05:39:16;96481.38;;;9.54;42.27
77889;BME280;67082;41.704;44.768;2023-02-28T05:41:44;96493.50;;;9.60;41.75
77889;BME280;67082;41.704;44.768;2023-02-28T05:44:12;96489.41;;;9.68;41.41
77889;BME280;67082;41.704;44.768;2023-02-28T05:46:40;96489.66;;;9.54;41.70
77889;BME280;67082;41.704;44.768;2023-02-28T05:49:09;96489.25;;;9.55;42.12
77889;BME280;67082;41.704;44.768;2023-02-28T05:51:37;96489.25;;;9.36;43.13
77889;BME280;67082;41.704;44.768;2023-02-28T05:54:07;96485.34;;;9.72;41.87
77889;BME280;67082;41.704;44.768;2023-02-28T05:56:36;96486.81;;;9.77;41.79
77889;BME280;67082;41.704;44.768;2023-02-28T05:59:07;96485.19;;;9.79;41.85
77889;BME280;67082;41.704;44.768;2023-02-28T06:01:40;96476.38;;;9.84;41.36
77889;BME280;67082;41.704;44.768;2023-02-28T06:04:10;96482.28;;;10.06;41.55
77889;BME280;67082;41.704;44.768;2023-02-28T06:06:55;96481.19;;;10.19;40.95
77889;BME280;67082;41.704;44.768;2023-02-28T06:09:25;96476.59;;;10.29;41.08
77889;BME280;67082;41.704;44.768;2023-02-28T06:11:54;96478.53;;;10.32;40.69
77889;BME280;67082;41.704;44.768;2023-02-28T06:14:23;96462.44;;;10.43;39.92
77889;BME280;67082;41.704;44.768;2023-02-28T06:16:51;96474.03;;;10.38;40.39
77889;BME280;67082;41.704;44.768;2023-02-28T06:19:20;96476.13;;;10.66;39.88
77889;BME280;67082;41.704;44.768;2023-02-28T06:21:51;96467.81;;;10.66;39.74
77889;BME280;67082;41.704;44.768;2023-02-28T06:24:22;96443.03;;;10.74;39.66
77889;BME280;67082;41.704;44.768;2023-02-28T06:26:50;96459.13;;;10.95;39.25
77889;BME280;67082;41.704;44.768;2023-02-28T06:29:19;96460.25;;;10.82;39.64
77889;BME280;67082;41.704;44.768;2023-02-28T06:31:47;96444.03;;;10.96;39.05
77889;BME280;67082;41.704;44.768;2023-02-28T06:34:16;96451.53;;;11.12;39.23
77889;BME280;67082;41.704;44.768;2023-02-28T06:36:44;96439.06;;;11.20;39.18
77889;BME280;67082;41.704;44.768;2023-02-28T06:39:13;96437.91;;;11.33;38.42
77889;BME280;67082;41.704;44.768;2023-02-28T06:41:41;96443.63;;;11.26;38.59
77889;BME280;67082;41.704;44.768;2023-02-28T06:44:23;96443.09;;;11.31;38.38
77889;BME280;67082;41.704;44.768;2023-02-28T06:46:52;96433.81;;;11.38;38.03
77889;BME280;67082;41.704;44.768;2023-02-28T06:49:21;96431.78;;;11.38;38.01
77889;BME280;67082;41.704;44.768;2023-02-28T06:51:49;96420.81;;;11.63;37.66
77889;BME280;67082;41.704;44.768;2023-02-28T06:54:17;96425.81;;;11.68;37.60
77889;BME280;67082;41.704;44.768;2023-02-28T06:56:47;96423.94;;;11.78;37.61
77889;BME280;67082;41.704;44.768;2023-02-28T06:59:16;96418.63;;;11.71;37.67
77889;BME280;67082;41.704;44.768;2023-02-28T07:01:45;96406.81;;;11.67;37.88
77889;BME280;67082;41.704;44.768;2023-02-28T07:04:13;96390.63;;;11.78;37.29
77889;BME280;67082;41.704;44.768;2023-02-28T07:06:41;96400.00;;;11.96;36.78
77889;BME280;67082;41.704;44.768;2023-02-28T07:09:10;96385.09;;;11.90;37.50
77889;BME280;67082;41.704;44.768;2023-02-28T07:11:38;96399.97;;;12.09;37.64
77889;BME280;67082;41.704;44.768;2023-02-28T07:14:07;96387.09;;;12.15;37.47
77889;BME280;67082;41.704;44.768;2023-02-28T07:16:35;96380.97;;;12.32;37.41
77889;BME280;67082;41.704;44.768;2023-02-28T07:19:03;96384.06;;;12.34;37.17
77889;BME280;67082;41.704;44.768;2023-02-28T07:21:32;96361.59;;;12.41;37.08
77889;BME280;67082;41.704;44.768;2023-02-28T07:24:01;96373.38;;;12.58;36.36
77889;BME280;67082;41.704;44.768;2023-02-28T07:26:28;96352.47;;;12.53;36.92
77889;BME280;67082;41.704;44.768;2023-02-28T07:28:57;96361.16;;;12.55;36.26
77889;BME280;67082;41.704;44.768;2023-02-28T07:31:27;96354.56;;;12.62;36.32
77889;BME280;67082;41.704;44.768;2023-02-28T07:33:56;96348.97;;;12.74;36.01
77889;BME280;67082;41.704;44.768;2023-02-28T07:36:26;96340.31;;;12.72;35.79
77889;BME280;67082;41.704;44.768;2023-02-28T07:38:55;96339.25;;;12.79;36.58
77889;BME280;67082;41.704;44.768;2023-02-28T07:41:23;96344.88;;;12.66;36.06
77889;BME280;67082;41.704;44.768;2023-02-28T07:43:56;96336.19;;;12.64;36.06
77889;BME280;67082;41.704;44.768;2023-02-28T07:46:25;96341.22;;;12.91;40.16
77889;BME280;67082;41.704;44.768;2023-02-28T07:48:57;96331.00;;;13.00;36.01
77889;BME280;67082;41.704;44.768;2023-02-28T07:51:27;96333.56;;;13.16;35.29
77889;BME280;67082;41.704;44.768;2023-02-28T07:53:59;96326.09;;;13.26;35.50
77889;BME280;67082;41.704;44.768;2023-02-28T07:56:27;96313.78;;;13.14;35.34
77889;BME280;67082;41.704;44.768;2023-02-28T07:58:56;96332.94;;;13.34;35.11
77889;BME280;67082;41.704;44.768;2023-02-28T08:01:24;96323.88;;;13.42;34.93
77889;BME280;67082;41.704;44.768;2023-02-28T08:03:53;96316.09;;;13.37;35.29
77889;BME280;67082;41.704;44.768;2023-02-28T08:06:24;96310.66;;;13.34;34.93
77889;BME280;67082;41.704;44.768;2023-02-28T08:08:54;96305.75;;;13.38;35.43
77889;BME280;67082;41.704;44.768;2023-02-28T08:11:23;96317.44;;;13.54;35.08
77889;BME280;67082;41.704;44.768;2023-02-28T08:13:54;96289.94;;;13.35;34.56
77889;BME280;67082;41.704;44.768;2023-02-28T08:16:23;96300.41;;;13.52;34.70
77889;BME280;67082;41.704;44.768;2023-02-28T08:18:52;96308.56;;;13.47;34.63
77889;BME280;67082;41.704;44.768;2023-02-28T08:21:21;96282.03;;;13.33;34.27
77889;BME280;67082;41.704;44.768;2023-02-28T08:23:54;96268.84;;;13.46;34.01
77889;BME280;67082;41.704;44.768;2023-02-28T08:26:24;96263.16;;;13.59;34.49
77889;BME280;67082;41.704;44.768;2023-02-28T08:28:53;96265.53;;;13.69;34.64
77889;BME280;67082;41.704;44.768;2023-02-28T08:31:23;96261.59;;;13.88;34.30
77889;BME280;67082;41.704;44.768;2023-02-28T08:33:51;96252.94;;;13.95;34.42
77889;BME280;67082;41.704;44.768;2023-02-28T08:36:20;96256.47;;;13.87;33.29
77889;BME280;67082;41.704;44.768;2023-02-28T08:38:49;96248.16;;;13.96;34.18
77889;BME280;67082;41.704;44.768;2023-02-28T08:41:17;96241.38;;;14.15;33.62
77889;BME280;67082;41.704;44.768;2023-02-28T08:43:45;96238.50;;;14.27;33.54
77889;BME280;67082;41.704;44.768;2023-02-28T08:46:14;96231.66;;;14.37;33.72
77889;BME280;67082;41.704;44.768;2023-02-28T08:48:43;96228.44;;;14.48;33.33
77889;BME280;67082;41.704;44.768;2023-02-28T08:51:16;96218.97;;;14.54;33.02
77889;BME280;67082;41.704;44.768;2023-02-28T08:53:48;96227.19;;;14.67;32.50
77889;BME280;67082;41.704;44.768;2023-02-28T08:56:18;96219.91;;;14.69;32.76
77889;BME280;67082;41.704;44.768;2023-02-28T08:58:49;96205.97;;;14.78;32.76
77889;BME280;67082;41.704;44.768;2023-02-28T09:01:20;96189.06;;;14.82;31.77
77889;BME280;67082;41.704;44.768;2023-02-28T09:03:50;96199.41;;;14.99;32.32
77889;BME280;67082;41.704;44.768;2023-02-28T09:06:22;96197.69;;;15.11;31.88
77889;BME280;67082;41.704;44.768;2023-02-28T09:08:51;96187.75;;;15.19;31.80
77889;BME280;67082;41.704;44.768;2023-02-28T09:11:20;96181.66;;;15.29;31.03
77889;BME280;67082;41.704;44.768;2023-02-28T09:13:51;96176.19;;;15.44;31.55
77889;BME280;67082;41.704;44.768;2023-02-28T09:16:19;96163.00;;;15.53;29.72
77889;BME280;67082;41.704;44.768;2023-02-28T09:18:47;96158.88;;;15.63;29.89
77889;BME280;67082;41.704;44.768;2023-02-28T09:21:17;96155.09;;;15.75;29.69
77889;BME280;67082;41.704;44.768;2023-02-28T09:23:48;96144.16;;;15.86;29.93
77889;BME280;67082;41.704;44.768;2023-02-28T09:26:25;96128.28;;;15.92;28.66
77889;BME280;67082;41.704;44.768;2023-02-28T09:29:07;96125.69;;;16.12;29.49
77889;BME280;67082;41.704;44.768;2023-02-28T09:31:36;96128.94;;;16.11;29.32
77889;BME280;67082;41.704;44.768;2023-02-28T09:34:04;96114.59;;;16.18;28.36
77889;BME280;67082;41.704;44.768;2023-02-28T09:36:32;96110.47;;;16.28;29.10
77889;BME280;67082;41.704;44.768;2023-02-28T09:39:13;96100.59;;;16.41;28.69
77889;BME280;67082;41.704;44.768;2023-02-28T09:41:45;96101.66;;;16.44;28.81
77889;BME280;67082;41.704;44.768;2023-02-28T09:44:38;96088.09;;;16.66;27.87
77889;BME280;67082;41.704;44.768;2023-02-28T09:49:48;96083.06;;;16.84;28.32
77889;BME280;67082;41.704;44.768;2023-02-28T09:52:21;96064.50;;;17.01;27.53
77889;BME280;67082;41.704;44.768;2023-02-28T09:54:54;96055.88;;;17.19;26.34
77889;BME280;67082;41.704;44.768;2023-02-28T09:57:32;96056.84;;;17.31;26.51
77889;BME280;67082;41.704;44.768;2023-02-28T10:05:18;96059.22;;;17.52;26.16
77889;BME280;67082;41.704;44.768;2023-02-28T10:08:11;96041.16;;;17.73;25.42
77889;BME280;67082;41.704;44.768;2023-02-28T10:10:44;96035.41;;;17.82;25.03
77889;BME280;67082;41.704;44.768;2023-02-28T10:18:56;96037.97;;;18.26;23.90
77889;BME280;67082;41.704;44.768;2023-02-28T10:21:31;96042.34;;;18.27;24.07
77889;BME280;67082;41.704;44.768;2023-02-28T10:26:47;96053.41;;;18.36;24.16
77889;BME280;67082;41.704;44.768;2023-02-28T10:29:17;96061.19;;;18.46;23.82
77889;BME280;67082;41.704;44.768;2023-02-28T10:31:45;96041.81;;;18.48;23.88
77889;BME280;67082;41.704;44.768;2023-02-28T10:34:13;96039.06;;;18.54;23.98
77889;BME280;67082;41.704;44.768;2023-02-28T10:36:42;96043.19;;;18.58;23.90
77889;BME280;67082;41.704;44.768;2023-02-28T10:39:36;96052.72;;;18.66;23.76
77889;BME280;67082;41.704;44.768;2023-02-28T10:42:19;96047.38;;;18.68;23.93
77889;BME280;67082;41.704;44.768;2023-02-28T10:44:47;96045.13;;;18.72;23.64
77889;BME280;67082;41.704;44.768;2023-02-28T10:47:17;96032.09;;;18.69;23.70
77889;BME280;67082;41.704;44.768;2023-02-28T10:49:48;96039.22;;;18.70;23.33
77889;BME280;67082;41.704;44.768;2023-02-28T10:52:47;96025.78;;;18.80;23.71
77889;BME280;67082;41.704;44.768;2023-02-28T10:55:18;96042.41;;;18.83;23.29
77889;BME280;67082;41.704;44.768;2023-02-28T10:57:48;96022.75;;;18.83;22.86
77889;BME280;67082;41.704;44.768;2023-02-28T11:00:19;96023.25;;;18.82;22.91
77889;BME280;67082;41.704;44.768;2023-02-28T11:02:49;96027.16;;;18.90;22.69
77889;BME280;67082;41.704;44.768;2023-02-28T11:05:27;96023.56;;;18.89;22.94
77889;BME280;67082;41.704;44.768;2023-02-28T11:10:39;96034.91;;;19.00;23.20
77889;BME280;67082;41.704;44.768;2023-02-28T11:13:20;96021.56;;;18.95;22.83
77889;BME280;67082;41.704;44.768;2023-02-28T11:15:54;96015.72;;;18.99;22.90
77889;BME280;67082;41.704;44.768;2023-02-28T11:18:40;96031.06;;;19.03;23.14
77889;BME280;67082;41.704;44.768;2023-02-28T11:21:16;96016.50;;;18.99;22.74
77889;BME280;67082;41.704;44.768;2023-02-28T11:23:46;96019.34;;;19.05;23.18
77889;BME280;67082;41.704;44.768;2023-02-28T11:26:15;96029.81;;;19.04;23.44
77889;BME280;67082;41.704;44.768;2023-02-28T11:28:47;96033.97;;;19.14;23.18
77889;BME280;67082;41.704;44.768;2023-02-28T11:31:18;96016.31;;;19.08;23.49
77889;BME280;67082;41.704;44.768;2023-02-28T11:33:55;96026.56;;;19.11;23.15
77889;BME280;67082;41.704;44.768;2023-02-28T11:36:30;96017.66;;;19.18;23.85
77889;BME280;67082;41.704;44.768;2023-02-28T11:39:10;96038.06;;;19.13;23.20
77889;BME280;67082;41.704;44.768;2023-02-28T11:41:55;96026.31;;;19.15;23.46
77889;BME280;67082;41.704;44.768;2023-02-28T11:53:02;96004.34;;;19.13;23.37
77889;BME280;67082;41.704;44.768;2023-02-28T11:55:37;96003.88;;;19.20;23.09
77889;BME280;67082;41.704;44.768;2023-02-28T12:00:40;96001.63;;;19.24;22.97
77889;BME280;67082;41.704;44.768;2023-02-28T12:06:12;96001.88;;;19.21;22.61
77889;BME280;67082;41.704;44.768;2023-02-28T12:20:41;95986.06;;;19.23;23.05
77889;BME280;67082;41.704;44.768;2023-02-28T12:28:44;95996.81;;;19.30;23.83
77889;BME280;67082;41.704;44.768;2023-02-28T12:31:19;95996.09;;;19.35;24.26
77889;BME280;67082;41.704;44.768;2023-02-28T12:33:56;95995.06;;;19.33;24.15
77889;BME280;67082;41.704;44.768;2023-02-28T12:36:28;95985.59;;;19.30;23.96
77889;BME280;67082;41.704;44.768;2023-02-28T12:39:01;95994.31;;;19.32;23.50
77889;BME280;67082;41.704;44.768;2023-02-28T12:41:44;95997.84;;;19.27;23.70
77889;BME280;67082;41.704;44.768;2023-02-28T12:44:32;96002.72;;;19.32;24.41
77889;BME280;67082;41.704;44.768;2023-02-28T12:47:14;95998.34;;;19.31;23.25
77889;BME280;67082;41.704;44.768;2023-02-28T12:58:48;96000.91;;;19.29;23.32
77889;BME280;67082;41.704;44.768;2023-02-28T13:09:56;96002.81;;;19.12;23.60
77889;BME280;67082;41.704;44.768;2023-02-28T13:12:26;96008.91;;;19.11;23.58
77889;BME280;67082;41.704;44.768;2023-02-28T13:17:50;96002.97;;;19.03;23.99
77889;BME280;67082;41.704;44.768;2023-02-28T13:20:33;96007.59;;;19.01;23.84
77889;BME280;67082;41.704;44.768;2023-02-28T13:23:03;96009.34;;;18.98;24.10
77889;BME280;67082;41.704;44.768;2023-02-28T13:25:50;96019.81;;;18.98;24.00
77889;BME280;67082;41.704;44.768;2023-02-28T13:31:26;96024.03;;;18.82;24.33
77889;BME280;67082;41.704;44.768;2023-02-28T13:36:29;96024.47;;;18.75;24.86
77889;BME280;67082;41.704;44.768;2023-02-28T13:50:32;96038.94;;;18.68;24.99
77889;BME280;67082;41.704;44.768;2023-02-28T13:58:41;96034.66;;;18.47;25.49
77889;BME280;67082;41.704;44.768;2023-02-28T14:06:51;96035.59;;;18.19;26.13
77889;BME280;67082;41.704;44.768;2023-02-28T14:09:33;96049.28;;;18.11;26.20
77889;BME280;67082;41.704;44.768;2023-02-28T14:20:47;96055.59;;;17.86;26.47
77889;BME280;67082;41.704;44.768;2023-02-28T14:26:30;96053.78;;;17.83;26.26
77889;BME280;67082;41.704;44.768;2023-02-28T14:29:29;96057.50;;;17.75;26.97
77889;BME280;67082;41.704;44.768;2023-02-28T14:37:31;96068.09;;;17.51;26.94
77889;BME280;67082;41.704;44.768;2023-02-28T14:40:01;96067.75;;;17.43;27.18
77889;BME280;67082;41.704;44.768;2023-02-28T14:42:34;96065.03;;;17.34;27.08
77889;BME280;67082;41.704;44.768;2023-02-28T14:45:05;96058.09;;;17.30;26.89
77889;BME280;67082;41.704;44.768;2023-02-28T14:47:35;96054.66;;;17.20;26.84
77889;BME280;67082;41.704;44.768;2023-02-28T14:50:04;96055.88;;;17.19;26.94
77889;BME280;67082;41.704;44.768;2023-02-28T14:52:33;96047.13;;;17.12;26.83
77889;BME280;67082;41.704;44.768;2023-02-28T14:55:14;96066.53;;;17.15;26.94
77889;BME280;67082;41.704;44.768;2023-02-28T14:57:54;96071.06;;;17.13;27.38
77889;BME280;67082;41.704;44.768;2023-02-28T15:00:26;96072.22;;;17.06;26.96
77889;BME280;67082;41.704;44.768;2023-02-28T15:02:56;96084.81;;;17.11;27.01
77889;BME280;67082;41.704;44.768;2023-02-28T15:05:27;96078.13;;;17.08;26.43
77889;BME280;67082;41.704;44.768;2023-02-28T15:08:14;96069.16;;;17.04;26.71
77889;BME280;67082;41.704;44.768;2023-02-28T15:11:01;96070.41;;;17.03;26.63
77889;BME280;67082;41.704;44.768;2023-02-28T15:13:46;96086.22;;;17.06;26.68
77889;BME280;67082;41.704;44.768;2023-02-28T15:16:29;96089.72;;;17.01;26.78
77889;BME280;67082;41.704;44.768;2023-02-28T15:19:02;96087.59;;;16.96;26.50
77889;BME280;67082;41.704;44.768;2023-02-28T15:21:40;96085.09;;;16.98;26.33
77889;BME280;67082;41.704;44.768;2023-02-28T15:24:20;96090.38;;;16.96;26.16
77889;BME280;67082;41.704;44.768;2023-02-28T15:26:56;96094.38;;;16.90;26.18
77889;BME280;67082;41.704;44.768;2023-02-28T15:29:27;96089.34;;;16.94;25.69
77889;BME280;67082;41.704;44.768;2023-02-28T15:34:34;96093.59;;;16.89;26.91
77889;BME280;67082;41.704;44.768;2023-02-28T15:40:13;96094.84;;;16.88;26.37
77889;BME280;67082;41.704;44.768;2023-02-28T15:43:16;96098.63;;;16.85;26.79
77889;BME280;67082;41.704;44.768;2023-02-28T15:46:12;96103.91;;;16.83;26.49
77889;BME280;67082;41.704;44.768;2023-02-28T15:48:53;96086.91;;;16.72;27.24
77889;BME280;67082;41.704;44.768;2023-02-28T15:51:33;96104.31;;;16.76;26.05
77889;BME280;67082;41.704;44.768;2023-02-28T15:54:08;96087.13;;;16.69;26.54
77889;BME280;67082;41.704;44.768;2023-02-28T15:56:43;96100.63;;;16.70;26.18
77889;BME280;67082;41.704;44.768;2023-02-28T15:59:21;96093.97;;;16.68;26.48
77889;BME280;67082;41.704;44.768;2023-02-28T16:05:20;96105.44;;;16.55;26.91
77889;BME280;67082;41.704;44.768;2023-02-28T16:07:46;96105.53;;;16.46;26.96
77889;BME280;67082;41.704;44.768;2023-02-28T16:10:18;96097.81;;;16.41;26.90
77889;BME280;67082;41.704;44.768;2023-02-28T16:12:50;96102.94;;;16.43;27.10
77889;BME280;67082;41.704;44.768;2023-02-28T16:15:21;96109.00;;;16.41;27.44